createdAt,value
2022-10-06T00:00:06.749Z,1017.91
2022-10-06T00:01:06.816Z,1017.86
2022-10-06T00:02:06.719Z,1017.96
2022-10-06T00:03:06.720Z,1017.92
2022-10-06T00:04:06.721Z,1017.93
2022-10-06T00:05:06.688Z,1017.98
2022-10-06T00:06:06.682Z,1017.98
2022-10-06T00:07:06.660Z,1018.05
2022-10-06T00:08:09.948Z,1018.02
2022-10-06T00:09:06.661Z,1018.01
2022-10-06T00:10:06.637Z,1018.11
2022-10-06T00:11:06.616Z,1018.08
2022-10-06T00:12:06.610Z,1018.09
2022-10-06T00:13:06.589Z,1018.14
2022-10-06T00:14:06.611Z,1018.14
2022-10-06T00:15:06.578Z,1018.15
2022-10-06T00:16:06.582Z,1018.13
2022-10-06T00:17:06.556Z,1018.19
2022-10-06T00:18:06.540Z,1018.22
2022-10-06T00:19:06.526Z,1018.21
2022-10-06T00:20:06.596Z,1018.27
2022-10-06T00:21:06.512Z,1018.28
2022-10-06T00:22:06.539Z,1018.36
2022-10-06T00:23:06.490Z,1018.24
2022-10-06T00:24:06.474Z,1018.33
2022-10-06T00:25:06.469Z,1018.42
2022-10-06T00:26:06.497Z,1018.40
2022-10-06T00:27:06.480Z,1018.35
2022-10-06T00:28:06.503Z,1018.39
2022-10-06T00:29:06.411Z,1018.39
2022-10-06T00:30:06.416Z,1018.37
2022-10-06T00:31:06.442Z,1018.38
2022-10-06T00:32:06.385Z,1018.37
2022-10-06T00:33:06.416Z,1018.41
2022-10-06T00:34:06.369Z,1018.44
2022-10-06T00:35:06.347Z,1018.49
2022-10-06T00:36:06.350Z,1018.55
2022-10-06T00:37:06.324Z,1018.57
2022-10-06T00:38:06.337Z,1018.61
2022-10-06T00:39:06.324Z,1018.59
2022-10-06T00:40:06.304Z,1018.63
2022-10-06T00:41:07.236Z,1018.61
2022-10-06T00:42:06.268Z,1018.60
2022-10-06T00:43:06.257Z,1018.68
2022-10-06T00:44:06.280Z,1018.60
2022-10-06T00:45:06.250Z,1018.70
2022-10-06T00:46:06.289Z,1018.70
2022-10-06T00:47:06.229Z,1018.72
2022-10-06T00:48:06.211Z,1018.73
2022-10-06T00:49:06.238Z,1018.75
2022-10-06T00:50:07.146Z,1018.79
2022-10-06T00:51:06.182Z,1018.85
2022-10-06T00:52:06.163Z,1018.88
2022-10-06T00:53:06.144Z,1018.86
2022-10-06T00:54:06.140Z,1018.92
2022-10-06T00:55:06.154Z,1018.91
2022-10-06T00:56:06.134Z,1018.97
2022-10-06T00:57:06.103Z,1018.97
2022-10-06T00:58:06.097Z,1018.96
2022-10-06T00:59:06.096Z,1019.00
2022-10-06T01:00:06.087Z,1018.93
2022-10-06T01:01:06.080Z,1018.98
2022-10-06T01:02:06.182Z,1018.95
2022-10-06T01:03:06.079Z,1019.01
2022-10-06T01:04:06.092Z,1019.06
2022-10-06T01:05:06.015Z,1019.06
2022-10-06T01:06:06.009Z,1019.04
2022-10-06T01:07:05.997Z,1019.08
2022-10-06T01:08:06.026Z,1019.05
2022-10-06T01:09:05.965Z,1019.10
2022-10-06T01:10:05.963Z,1019.16
2022-10-06T01:11:05.945Z,1019.11
2022-10-06T01:12:05.951Z,1019.09
2022-10-06T01:13:05.948Z,1019.10
2022-10-06T01:14:05.918Z,1019.11
2022-10-06T01:15:05.898Z,1019.10
2022-10-06T01:16:05.954Z,1019.13
2022-10-06T01:17:05.892Z,1019.15
2022-10-06T01:18:05.923Z,1019.23
2022-10-06T01:19:05.869Z,1019.18
2022-10-06T01:20:05.850Z,1019.18
2022-10-06T01:21:05.863Z,1019.18
2022-10-06T01:22:05.831Z,1019.14
2022-10-06T01:23:05.816Z,1019.16
2022-10-06T01:24:05.831Z,1019.22
2022-10-06T01:25:05.793Z,1019.18
2022-10-06T01:26:05.781Z,1019.27
2022-10-06T01:27:06.753Z,1019.28
2022-10-06T01:28:05.900Z,1019.24
2022-10-06T01:29:05.750Z,1019.28
2022-10-06T01:30:05.771Z,1019.22
2022-10-06T01:31:05.764Z,1019.27
2022-10-06T01:32:05.712Z,1019.31
2022-10-06T01:33:05.723Z,1019.26
2022-10-06T01:34:05.703Z,1019.28
2022-10-06T01:35:05.677Z,1019.38
2022-10-06T01:36:05.675Z,1019.38
2022-10-06T01:37:05.673Z,1019.38
2022-10-06T01:38:05.953Z,1019.38
2022-10-06T01:39:05.635Z,1019.40
2022-10-06T01:40:05.635Z,1019.37
2022-10-06T01:41:05.605Z,1019.31
2022-10-06T01:42:05.601Z,1019.31
2022-10-06T01:43:05.603Z,1019.27
2022-10-06T01:44:05.628Z,1019.36
2022-10-06T01:45:05.576Z,1019.37
2022-10-06T01:46:05.656Z,1019.44
2022-10-06T01:47:05.538Z,1019.39
2022-10-06T01:48:05.547Z,1019.45
2022-10-06T01:49:05.538Z,1019.43
2022-10-06T01:50:05.513Z,1019.48
2022-10-06T01:51:05.513Z,1019.44
2022-10-06T01:52:05.490Z,1019.43
2022-10-06T01:53:05.498Z,1019.48
2022-10-06T01:54:05.489Z,1019.47
2022-10-06T01:55:05.448Z,1019.55
2022-10-06T01:56:05.441Z,1019.51
2022-10-06T01:57:05.428Z,1019.55
2022-10-06T01:58:05.475Z,1019.50
2022-10-06T01:59:05.409Z,1019.53
2022-10-06T02:00:05.420Z,1019.56
2022-10-06T02:01:05.399Z,1019.56
2022-10-06T02:02:05.460Z,1019.54
2022-10-06T02:03:05.362Z,1019.54
2022-10-06T02:04:05.465Z,1019.57
2022-10-06T02:05:05.351Z,1019.58
2022-10-06T02:06:05.379Z,1019.65
2022-10-06T02:07:05.459Z,1019.63
2022-10-06T02:08:06.282Z,1019.65
2022-10-06T02:09:05.295Z,1019.62
2022-10-06T02:10:05.308Z,1019.61
2022-10-06T02:11:05.274Z,1019.65
2022-10-06T02:12:05.274Z,1019.66
2022-10-06T02:13:05.532Z,1019.69
2022-10-06T02:14:05.249Z,1019.72
2022-10-06T02:15:05.235Z,1019.69
2022-10-06T02:16:05.280Z,1019.66
2022-10-06T02:17:05.206Z,1019.72
2022-10-06T02:18:05.249Z,1019.72
2022-10-06T02:19:05.195Z,1019.80
2022-10-06T02:20:05.180Z,1019.78
2022-10-06T02:21:05.166Z,1019.80
2022-10-06T02:22:05.164Z,1019.85
2022-10-06T02:23:05.138Z,1019.85
2022-10-06T02:24:06.117Z,1019.82
2022-10-06T02:25:05.137Z,1019.82
2022-10-06T02:26:05.117Z,1019.85
2022-10-06T02:27:05.098Z,1019.89
2022-10-06T02:28:05.118Z,1019.89
2022-10-06T02:29:05.077Z,1019.90
2022-10-06T02:30:05.481Z,1019.89
2022-10-06T02:31:05.111Z,1019.84
2022-10-06T02:32:05.039Z,1019.83
2022-10-06T02:33:05.237Z,1019.89
2022-10-06T02:34:05.028Z,1019.88
2022-10-06T02:35:05.005Z,1019.93
2022-10-06T02:36:05.039Z,1019.92
2022-10-06T02:37:04.981Z,1019.96
2022-10-06T02:38:04.978Z,1019.98
2022-10-06T02:39:04.957Z,1019.97
2022-10-06T02:40:04.955Z,1020.01
2022-10-06T02:41:06.158Z,1020.07
2022-10-06T02:42:04.935Z,1020.11
2022-10-06T02:43:04.947Z,1020.13
2022-10-06T02:44:04.915Z,1020.16
2022-10-06T02:45:04.923Z,1020.13
2022-10-06T02:46:04.978Z,1020.14
2022-10-06T02:47:05.409Z,1020.15
2022-10-06T02:48:04.869Z,1020.18
2022-10-06T02:49:04.896Z,1020.20
2022-10-06T02:50:04.845Z,1020.26
2022-10-06T02:51:04.838Z,1020.28
2022-10-06T02:52:04.824Z,1020.28
2022-10-06T02:53:04.805Z,1020.34
2022-10-06T02:54:04.804Z,1020.32
2022-10-06T02:55:05.173Z,1020.25
2022-10-06T02:56:04.765Z,1020.28
2022-10-06T02:57:04.766Z,1020.31
2022-10-06T02:58:04.785Z,1020.33
2022-10-06T02:59:05.701Z,1020.37
2022-10-06T03:00:05.518Z,1020.39
2022-10-06T03:01:04.725Z,1020.40
2022-10-06T03:02:04.804Z,1020.35
2022-10-06T03:03:04.745Z,1020.34
2022-10-06T03:04:04.690Z,1020.38
2022-10-06T03:05:04.678Z,1020.46
2022-10-06T03:06:04.719Z,1020.44
2022-10-06T03:07:04.656Z,1020.47
2022-10-06T03:08:04.641Z,1020.55
2022-10-06T03:09:04.629Z,1020.53
2022-10-06T03:10:04.635Z,1020.51
2022-10-06T03:11:04.618Z,1020.56
2022-10-06T03:12:04.630Z,1020.57
2022-10-06T03:13:04.593Z,1020.63
2022-10-06T03:14:04.580Z,1020.58
2022-10-06T03:15:04.569Z,1020.61
2022-10-06T03:16:04.622Z,1020.61
2022-10-06T03:17:07.300Z,1020.62
2022-10-06T03:18:04.536Z,1020.63
2022-10-06T03:19:04.532Z,1020.66
2022-10-06T03:20:04.517Z,1020.70
2022-10-06T03:21:05.415Z,1020.71
2022-10-06T03:22:04.497Z,1020.67
2022-10-06T03:23:04.472Z,1020.70
2022-10-06T03:24:04.574Z,1020.67
2022-10-06T03:25:04.457Z,1020.69
2022-10-06T03:26:04.447Z,1020.83
2022-10-06T03:27:04.546Z,1020.82
2022-10-06T03:28:04.462Z,1020.81
2022-10-06T03:29:07.905Z,1020.82
2022-10-06T03:30:05.415Z,1020.86
2022-10-06T03:31:04.401Z,1020.85
2022-10-06T03:32:04.382Z,1020.94
2022-10-06T03:33:04.377Z,1020.83
2022-10-06T03:34:04.366Z,1020.88
2022-10-06T03:35:04.366Z,1020.94
2022-10-06T03:36:04.336Z,1020.95
2022-10-06T03:37:04.351Z,1021.01
2022-10-06T03:38:04.329Z,1021.01
2022-10-06T03:39:04.306Z,1021.02
2022-10-06T03:40:04.292Z,1021.04
2022-10-06T03:41:04.285Z,1021.10
2022-10-06T03:42:04.293Z,1021.05
2022-10-06T03:43:04.282Z,1021.10
2022-10-06T03:44:04.260Z,1021.19
2022-10-06T03:45:04.239Z,1021.20
2022-10-06T03:46:04.233Z,1021.22
2022-10-06T03:47:04.369Z,1021.19
2022-10-06T03:48:04.239Z,1021.15
2022-10-06T03:49:04.201Z,1021.16
2022-10-06T03:50:04.206Z,1021.13
2022-10-06T03:51:04.180Z,1021.26
2022-10-06T03:52:04.162Z,1021.25
2022-10-06T03:53:04.162Z,1021.29
2022-10-06T03:54:04.146Z,1021.32
2022-10-06T03:55:04.132Z,1021.30
2022-10-06T03:56:04.123Z,1021.40
2022-10-06T03:57:04.155Z,1021.35
2022-10-06T03:58:04.144Z,1021.43
2022-10-06T03:59:04.087Z,1021.41
2022-10-06T04:00:04.073Z,1021.47
2022-10-06T04:01:04.166Z,1021.45
2022-10-06T04:02:04.107Z,1021.49
2022-10-06T04:03:04.125Z,1021.56
2022-10-06T04:04:04.076Z,1021.57
2022-10-06T04:05:04.014Z,1021.55
2022-10-06T04:06:04.017Z,1021.57
2022-10-06T04:07:04.002Z,1021.56
2022-10-06T04:08:04.962Z,1021.66
2022-10-06T04:09:03.997Z,1021.60
2022-10-06T04:10:03.972Z,1021.66
2022-10-06T04:11:03.946Z,1021.63
2022-10-06T04:12:03.934Z,1021.65
2022-10-06T04:13:03.945Z,1021.63
2022-10-06T04:14:03.915Z,1021.61
2022-10-06T04:15:03.926Z,1021.71
2022-10-06T04:16:03.942Z,1021.71
2022-10-06T04:17:03.907Z,1021.78
2022-10-06T04:18:03.906Z,1021.76
2022-10-06T04:19:03.961Z,1021.80
2022-10-06T04:20:03.859Z,1021.80
2022-10-06T04:21:03.844Z,1021.86
2022-10-06T04:22:03.836Z,1021.88
2022-10-06T04:23:03.823Z,1021.85
2022-10-06T04:24:03.834Z,1021.88
2022-10-06T04:25:03.824Z,1021.86
2022-10-06T04:26:03.781Z,1021.81
2022-10-06T04:27:03.800Z,1021.89
2022-10-06T04:28:03.808Z,1021.90
2022-10-06T04:29:03.802Z,1021.93
2022-10-06T04:30:03.744Z,1021.91
2022-10-06T04:31:03.736Z,1021.88
2022-10-06T04:32:03.769Z,1021.90
2022-10-06T04:33:03.721Z,1021.97
2022-10-06T04:34:03.776Z,1021.91
2022-10-06T04:35:03.717Z,1021.92
2022-10-06T04:36:03.683Z,1021.93
2022-10-06T04:37:03.693Z,1021.98
2022-10-06T04:38:03.655Z,1021.99
2022-10-06T04:39:03.644Z,1021.95
2022-10-06T04:40:03.642Z,1021.97
2022-10-06T04:41:03.730Z,1021.98
2022-10-06T04:42:03.624Z,1022.03
2022-10-06T04:43:03.603Z,1022.01
2022-10-06T04:44:03.597Z,1021.98
2022-10-06T04:45:03.687Z,1022.02
2022-10-06T04:46:18.228Z,1022.01
2022-10-06T04:47:04.618Z,1022.01
2022-10-06T04:48:03.546Z,1022.11
2022-10-06T04:49:03.551Z,1022.17
2022-10-06T04:50:03.527Z,1022.13
2022-10-06T04:51:03.648Z,1022.24
2022-10-06T04:52:03.526Z,1022.23
2022-10-06T04:53:03.487Z,1022.26
2022-10-06T04:54:03.492Z,1022.33
2022-10-06T04:55:03.647Z,1022.30
2022-10-06T04:56:03.457Z,1022.28
2022-10-06T04:57:03.633Z,1022.34
2022-10-06T04:58:03.440Z,1022.33
2022-10-06T04:59:03.424Z,1022.44
2022-10-06T05:00:08.847Z,1022.35
2022-10-06T05:01:04.513Z,1022.38
2022-10-06T05:02:03.428Z,1022.39
2022-10-06T05:03:03.499Z,1022.39
2022-10-06T05:04:03.430Z,1022.36
2022-10-06T05:05:03.370Z,1022.38
2022-10-06T05:06:03.366Z,1022.44
2022-10-06T05:07:03.358Z,1022.46
2022-10-06T05:08:03.558Z,1022.44
2022-10-06T05:09:04.274Z,1022.51
2022-10-06T05:10:03.304Z,1022.48
2022-10-06T05:11:03.307Z,1022.53
2022-10-06T05:12:03.304Z,1022.53
2022-10-06T05:13:03.286Z,1022.53
2022-10-06T05:14:03.330Z,1022.59
2022-10-06T05:15:03.251Z,1022.65
2022-10-06T05:16:03.266Z,1022.64
2022-10-06T05:17:03.223Z,1022.63
2022-10-06T05:18:03.208Z,1022.67
2022-10-06T05:19:03.205Z,1022.64
2022-10-06T05:20:03.214Z,1022.69
2022-10-06T05:21:06.484Z,1022.72
2022-10-06T05:22:03.156Z,1022.68
2022-10-06T05:23:03.155Z,1022.74
2022-10-06T05:24:03.159Z,1022.78
2022-10-06T05:25:03.143Z,1022.77
2022-10-06T05:26:03.155Z,1022.84
2022-10-06T05:27:03.115Z,1022.77
2022-10-06T05:28:03.210Z,1022.85
2022-10-06T05:29:03.100Z,1022.81
2022-10-06T05:30:03.078Z,1022.90
2022-10-06T05:31:03.143Z,1022.85
2022-10-06T05:32:03.198Z,1022.87
2022-10-06T05:33:03.065Z,1022.85
2022-10-06T05:34:03.061Z,1022.90
2022-10-06T05:35:03.019Z,1022.90
2022-10-06T05:36:03.014Z,1022.90
2022-10-06T05:37:03.009Z,1022.92
2022-10-06T05:38:03.023Z,1022.96
2022-10-06T05:39:04.958Z,1022.95
2022-10-06T05:40:02.974Z,1022.97
2022-10-06T05:41:02.962Z,1022.96
2022-10-06T05:42:02.940Z,1023.00
2022-10-06T05:43:04.390Z,1023.01
2022-10-06T05:44:02.947Z,1023.07
2022-10-06T05:45:02.912Z,1023.10
2022-10-06T05:46:02.930Z,1023.12
2022-10-06T05:47:02.915Z,1023.13
2022-10-06T05:48:02.983Z,1023.14
2022-10-06T05:49:02.871Z,1023.13
2022-10-06T05:50:02.852Z,1023.20
2022-10-06T05:51:02.844Z,1023.19
2022-10-06T05:52:02.856Z,1023.23
2022-10-06T05:53:02.833Z,1023.27
2022-10-06T05:54:03.608Z,1023.33
2022-10-06T05:55:03.612Z,1023.36
2022-10-06T05:56:02.785Z,1023.39
2022-10-06T05:57:03.723Z,1023.36
2022-10-06T05:58:03.264Z,1023.33
2022-10-06T05:59:02.783Z,1023.35
2022-10-06T06:00:03.084Z,1023.31
2022-10-06T06:01:02.737Z,1023.42
2022-10-06T06:02:02.799Z,1023.41
2022-10-06T06:03:03.691Z,1023.42
2022-10-06T06:04:02.711Z,1023.39
2022-10-06T06:05:02.689Z,1023.43
2022-10-06T06:06:02.696Z,1023.46
2022-10-06T06:07:02.668Z,1023.52
2022-10-06T06:08:02.679Z,1023.52
2022-10-06T06:09:02.662Z,1023.48
2022-10-06T06:10:02.648Z,1023.56
2022-10-06T06:11:02.627Z,1023.54
2022-10-06T06:12:02.631Z,1023.55
2022-10-06T06:13:02.622Z,1023.55
2022-10-06T06:14:02.591Z,1023.54
2022-10-06T06:15:02.586Z,1023.51
2022-10-06T06:16:02.552Z,1023.53
2022-10-06T06:17:02.651Z,1023.58
2022-10-06T06:18:02.561Z,1023.56
2022-10-06T06:19:02.538Z,1023.57
2022-10-06T06:20:02.512Z,1023.60
2022-10-06T06:21:02.499Z,1023.60
2022-10-06T06:22:02.491Z,1023.63
2022-10-06T06:23:02.482Z,1023.62
2022-10-06T06:24:02.514Z,1023.64
2022-10-06T06:25:03.290Z,1023.66
2022-10-06T06:26:02.903Z,1023.68
2022-10-06T06:27:02.470Z,1023.66
2022-10-06T06:28:02.479Z,1023.73
2022-10-06T06:29:02.439Z,1023.75
2022-10-06T06:30:02.408Z,1023.68
2022-10-06T06:31:02.481Z,1023.71
2022-10-06T06:32:02.416Z,1023.69
2022-10-06T06:33:02.425Z,1023.74
2022-10-06T06:34:02.370Z,1023.76
2022-10-06T06:35:02.353Z,1023.81
2022-10-06T06:36:02.364Z,1023.79
2022-10-06T06:37:07.533Z,1023.80
2022-10-06T06:38:03.373Z,1023.86
2022-10-06T06:39:02.312Z,1023.84
2022-10-06T06:40:02.324Z,1023.87
2022-10-06T06:41:02.297Z,1023.91
2022-10-06T06:42:02.277Z,1023.91
2022-10-06T06:43:02.266Z,1023.94
2022-10-06T06:44:02.262Z,1023.98
2022-10-06T06:45:02.293Z,1023.98
2022-10-06T06:46:02.313Z,1024.03
2022-10-06T06:47:02.221Z,1024.03
2022-10-06T06:48:02.417Z,1024.06
2022-10-06T06:49:02.218Z,1024.08
2022-10-06T06:50:02.190Z,1024.14
2022-10-06T06:51:02.192Z,1024.18
2022-10-06T06:52:02.167Z,1024.12
2022-10-06T06:53:02.147Z,1024.20
2022-10-06T06:54:02.180Z,1024.14
2022-10-06T06:55:02.142Z,1024.17
2022-10-06T06:56:02.135Z,1024.16
2022-10-06T06:57:02.114Z,1024.17
2022-10-06T06:58:02.143Z,1024.25
2022-10-06T06:59:02.082Z,1024.20
2022-10-06T07:00:02.071Z,1024.22
2022-10-06T07:01:02.144Z,1024.25
2022-10-06T07:02:02.101Z,1024.24
2022-10-06T07:03:02.066Z,1024.29
2022-10-06T07:04:02.055Z,1024.35
2022-10-06T07:05:02.026Z,1024.30
2022-10-06T07:06:02.021Z,1024.36
2022-10-06T07:07:02.006Z,1024.35
2022-10-06T07:08:01.986Z,1024.36
2022-10-06T07:09:01.998Z,1024.38
2022-10-06T07:10:01.968Z,1024.41
2022-10-06T07:11:01.969Z,1024.43
2022-10-06T07:12:01.954Z,1024.44
2022-10-06T07:13:01.938Z,1024.47
2022-10-06T07:14:01.922Z,1024.47
2022-10-06T07:15:01.943Z,1024.56
2022-10-06T07:16:01.939Z,1024.56
2022-10-06T07:17:01.892Z,1024.52
2022-10-06T07:18:01.888Z,1024.48
2022-10-06T07:19:01.908Z,1024.49
2022-10-06T07:20:01.895Z,1024.54
2022-10-06T07:21:01.855Z,1024.55
2022-10-06T07:22:01.840Z,1024.59
2022-10-06T07:23:01.836Z,1024.57
2022-10-06T07:24:01.820Z,1024.61
2022-10-06T07:25:01.839Z,1024.64
2022-10-06T07:26:01.799Z,1024.70
2022-10-06T07:27:01.791Z,1024.65
2022-10-06T07:28:01.795Z,1024.67
2022-10-06T07:29:01.772Z,1024.72
2022-10-06T07:30:02.806Z,1024.71
2022-10-06T07:31:01.851Z,1024.72
2022-10-06T07:32:01.750Z,1024.74
2022-10-06T07:33:01.710Z,1024.74
2022-10-06T07:34:01.698Z,1024.76
2022-10-06T07:35:01.714Z,1024.78
2022-10-06T07:36:01.731Z,1024.83
2022-10-06T07:37:04.193Z,1024.89
2022-10-06T07:38:01.654Z,1024.90
2022-10-06T07:39:02.611Z,1024.92
2022-10-06T07:40:01.646Z,1024.92
2022-10-06T07:42:02.667Z,1024.91
2022-10-06T07:43:01.619Z,1024.92
2022-10-06T07:44:05.806Z,1024.94
2022-10-06T07:45:02.608Z,1024.97
2022-10-06T07:46:01.651Z,1025.06
2022-10-06T07:47:01.557Z,1024.96
2022-10-06T07:48:01.566Z,1025.01
2022-10-06T07:49:01.557Z,1025.04
2022-10-06T07:50:01.516Z,1025.02
2022-10-06T07:51:01.519Z,1025.06
2022-10-06T07:52:01.635Z,1025.08
2022-10-06T07:53:01.538Z,1025.13
2022-10-06T07:54:01.484Z,1025.11
2022-10-06T07:55:01.465Z,1025.16
2022-10-06T07:56:01.472Z,1025.18
2022-10-06T07:57:01.452Z,1025.20
2022-10-06T07:58:01.466Z,1025.18
2022-10-06T07:59:01.447Z,1025.18
2022-10-06T08:00:03.362Z,1025.19
2022-10-06T08:01:01.435Z,1025.24
2022-10-06T08:02:01.528Z,1025.22
2022-10-06T08:03:01.543Z,1025.23
2022-10-06T08:04:01.382Z,1025.26
2022-10-06T08:05:01.347Z,1025.30
2022-10-06T08:06:01.410Z,1025.23
2022-10-06T08:07:01.351Z,1025.21
2022-10-06T08:08:01.337Z,1025.24
2022-10-06T08:09:01.324Z,1025.22
2022-10-06T08:10:01.309Z,1025.24
2022-10-06T08:11:01.948Z,1025.24
2022-10-06T08:12:01.352Z,1025.26
2022-10-06T08:13:01.286Z,1025.26
2022-10-06T08:14:01.266Z,1025.30
2022-10-06T08:15:04.546Z,1025.36
2022-10-06T08:16:02.282Z,1025.33
2022-10-06T08:17:01.302Z,1025.41
2022-10-06T08:18:01.234Z,1025.39
2022-10-06T08:19:01.243Z,1025.38
2022-10-06T08:20:01.216Z,1025.42
2022-10-06T08:21:01.200Z,1025.38
2022-10-06T08:22:04.835Z,1025.40
2022-10-06T08:23:01.177Z,1025.43
2022-10-06T08:24:01.188Z,1025.47
2022-10-06T08:25:06.321Z,1025.44
2022-10-06T08:26:02.138Z,1025.48
2022-10-06T08:27:01.140Z,1025.46
2022-10-06T08:28:01.141Z,1025.49
2022-10-06T08:29:01.094Z,1025.49
2022-10-06T08:30:01.117Z,1025.54
2022-10-06T08:31:01.138Z,1025.55
2022-10-06T08:32:01.129Z,1025.51
2022-10-06T08:33:01.139Z,1025.51
2022-10-06T08:34:01.596Z,1025.51
2022-10-06T08:35:01.042Z,1025.58
2022-10-06T08:36:01.041Z,1025.59
2022-10-06T08:37:19.375Z,1025.55
2022-10-06T08:38:02.003Z,1025.58
2022-10-06T08:39:01.768Z,1025.60
2022-10-06T08:40:01.118Z,1025.59
2022-10-06T08:41:00.961Z,1025.62
2022-10-06T08:42:00.952Z,1025.69
2022-10-06T08:43:00.942Z,1025.63
2022-10-06T08:44:00.947Z,1025.71
2022-10-06T08:45:00.958Z,1025.64
2022-10-06T08:46:00.916Z,1025.67
2022-10-06T08:47:00.890Z,1025.63
2022-10-06T08:48:00.881Z,1025.58
2022-10-06T08:49:00.860Z,1025.64
2022-10-06T08:50:01.201Z,1025.60
2022-10-06T08:51:00.839Z,1025.62
2022-10-06T08:52:02.281Z,1025.57
2022-10-06T08:53:00.810Z,1025.65
2022-10-06T08:54:00.847Z,1025.69
2022-10-06T08:55:01.083Z,1025.63
2022-10-06T08:56:00.802Z,1025.68
2022-10-06T08:57:00.865Z,1025.67
2022-10-06T08:58:01.794Z,1025.68
2022-10-06T08:59:00.754Z,1025.67
2022-10-06T09:00:00.754Z,1025.72
2022-10-06T09:01:00.796Z,1025.70
2022-10-06T09:02:01.732Z,1025.71
2022-10-06T09:03:00.864Z,1025.73
2022-10-06T09:04:00.698Z,1025.79
2022-10-06T09:05:00.694Z,1025.79
2022-10-06T09:06:00.715Z,1025.75
2022-10-06T09:07:00.666Z,1025.74
2022-10-06T09:08:00.698Z,1025.75
2022-10-06T09:09:00.644Z,1025.83
2022-10-06T09:10:00.637Z,1025.77
2022-10-06T09:11:00.618Z,1025.80
2022-10-06T09:12:00.619Z,1025.84
2022-10-06T09:13:00.663Z,1025.90
2022-10-06T09:14:00.621Z,1025.94
2022-10-06T09:15:00.587Z,1025.89
2022-10-06T09:16:00.612Z,1025.96
2022-10-06T09:17:00.762Z,1025.90
2022-10-06T09:18:00.545Z,1025.96
2022-10-06T09:19:09.243Z,1025.96
2022-10-06T09:20:01.522Z,1025.98
2022-10-06T09:21:00.515Z,1026.07
2022-10-06T09:22:00.548Z,1026.00
2022-10-06T09:23:00.488Z,1026.06
2022-10-06T09:24:00.510Z,1026.10
2022-10-06T09:25:00.480Z,1026.08
2022-10-06T09:26:01.415Z,1026.14
2022-10-06T09:27:00.466Z,1026.09
2022-10-06T09:28:00.485Z,1026.06
2022-10-06T09:29:00.456Z,1026.13
2022-10-06T09:30:00.452Z,1026.06
2022-10-06T09:31:00.459Z,1026.07
2022-10-06T09:32:00.402Z,1026.14
2022-10-06T09:33:00.377Z,1026.13
2022-10-06T09:34:00.362Z,1026.15
2022-10-06T09:35:00.368Z,1026.17
2022-10-06T09:36:00.631Z,1026.17
2022-10-06T09:37:02.301Z,1026.13
2022-10-06T09:38:04.405Z,1026.17
2022-10-06T09:39:02.292Z,1026.20
2022-10-06T09:40:00.307Z,1026.22
2022-10-06T09:41:01.265Z,1026.23
2022-10-06T09:42:00.306Z,1026.20
2022-10-06T09:43:00.805Z,1026.20
2022-10-06T09:44:00.308Z,1026.21
2022-10-06T09:45:00.250Z,1026.21
2022-10-06T09:46:00.291Z,1026.26
2022-10-06T09:47:00.217Z,1026.25
2022-10-06T09:48:00.218Z,1026.26
2022-10-06T09:49:00.200Z,1026.21
2022-10-06T09:50:00.242Z,1026.30
2022-10-06T09:51:00.233Z,1026.22
2022-10-06T09:52:00.336Z,1026.24
2022-10-06T09:53:00.162Z,1026.22
2022-10-06T09:54:01.101Z,1026.27
2022-10-06T09:55:00.129Z,1026.27
2022-10-06T09:56:00.175Z,1026.28
2022-10-06T09:57:00.282Z,1026.31
2022-10-06T09:58:01.068Z,1026.30
2022-10-06T09:59:00.097Z,1026.27
2022-10-06T10:00:00.333Z,1026.25
2022-10-06T10:01:01.140Z,1026.27
2022-10-06T10:02:00.112Z,1026.29
2022-10-06T10:03:00.115Z,1026.33
2022-10-06T10:04:19.267Z,1026.33
2022-10-06T10:05:01.045Z,1026.30
2022-10-06T10:06:00.035Z,1026.32
2022-10-06T10:07:00.146Z,1026.29
2022-10-06T10:08:00.375Z,1026.21
2022-10-06T10:08:59.983Z,1026.26
2022-10-06T10:10:00.092Z,1026.24
2022-10-06T10:10:59.961Z,1026.27
2022-10-06T10:12:01.426Z,1026.34
2022-10-06T10:13:00.629Z,1026.25
2022-10-06T10:14:00.450Z,1026.27
2022-10-06T10:15:00.385Z,1026.29
2022-10-06T10:16:00.408Z,1026.29
2022-10-06T10:16:59.907Z,1026.30
2022-10-06T10:17:59.891Z,1026.35
2022-10-06T10:18:59.875Z,1026.31
2022-10-06T10:20:00.191Z,1026.28
2022-10-06T10:20:59.903Z,1026.30
2022-10-06T10:22:00.114Z,1026.29
2022-10-06T10:22:59.862Z,1026.27
2022-10-06T10:24:01.268Z,1026.27
2022-10-06T10:24:59.874Z,1026.30
2022-10-06T10:25:59.851Z,1026.28
2022-10-06T10:26:59.782Z,1026.22
2022-10-06T10:27:59.837Z,1026.27
2022-10-06T10:29:00.569Z,1026.30
2022-10-06T10:30:00.740Z,1026.33
2022-10-06T10:30:59.989Z,1026.23
2022-10-06T10:32:01.260Z,1026.20
2022-10-06T10:33:00.101Z,1026.23
2022-10-06T10:34:12.058Z,1026.22
2022-10-06T10:35:00.842Z,1026.21
2022-10-06T10:36:01.665Z,1026.27
2022-10-06T10:37:00.127Z,1026.23
2022-10-06T10:37:59.684Z,1026.23
2022-10-06T10:39:00.187Z,1026.28
2022-10-06T10:39:59.673Z,1026.25
2022-10-06T10:40:59.675Z,1026.29
2022-10-06T10:42:00.321Z,1026.26
2022-10-06T10:42:59.674Z,1026.27
2022-10-06T10:44:03.993Z,1026.31
2022-10-06T10:44:59.767Z,1026.26
2022-10-06T10:46:00.416Z,1026.27
2022-10-06T10:46:59.655Z,1026.26
2022-10-06T10:47:59.561Z,1026.32
2022-10-06T10:48:59.554Z,1026.33
2022-10-06T10:49:59.602Z,1026.34
2022-10-06T10:50:59.536Z,1026.33
2022-10-06T10:51:59.690Z,1026.34
2022-10-06T10:53:00.943Z,1026.38
2022-10-06T10:53:59.494Z,1026.30
2022-10-06T10:55:00.422Z,1026.29
2022-10-06T10:55:59.812Z,1026.37
2022-10-06T10:56:59.451Z,1026.23
2022-10-06T10:57:59.561Z,1026.27
2022-10-06T10:58:59.428Z,1026.33
2022-10-06T10:59:59.428Z,1026.27
2022-10-06T11:00:59.438Z,1026.30
2022-10-06T11:01:59.483Z,1026.30
2022-10-06T11:02:59.390Z,1026.23
2022-10-06T11:03:59.388Z,1026.28
2022-10-06T11:04:59.593Z,1026.26
2022-10-06T11:05:59.364Z,1026.28
2022-10-06T11:06:59.441Z,1026.33
2022-10-06T11:07:59.340Z,1026.29
2022-10-06T11:08:59.321Z,1026.23
2022-10-06T11:09:59.442Z,1026.28
2022-10-06T11:10:59.317Z,1026.27
2022-10-06T11:11:59.292Z,1026.28
2022-10-06T11:12:59.277Z,1026.27
2022-10-06T11:13:59.276Z,1026.30
2022-10-06T11:15:00.001Z,1026.28
2022-10-06T11:15:59.296Z,1026.31
2022-10-06T11:16:59.238Z,1026.27
2022-10-06T11:17:59.213Z,1026.27
2022-10-06T11:18:59.234Z,1026.30
2022-10-06T11:19:59.196Z,1026.26
2022-10-06T11:20:59.224Z,1026.25
2022-10-06T11:21:59.182Z,1026.22
2022-10-06T11:22:59.163Z,1026.27
2022-10-06T11:23:59.166Z,1026.26
2022-10-06T11:24:59.379Z,1026.34
2022-10-06T11:25:59.125Z,1026.29
2022-10-06T11:26:59.147Z,1026.32
2022-10-06T11:27:59.168Z,1026.37
2022-10-06T11:28:59.095Z,1026.37
2022-10-06T11:29:59.356Z,1026.33
2022-10-06T11:31:00.099Z,1026.33
2022-10-06T11:31:59.247Z,1026.33
2022-10-06T11:32:59.138Z,1026.34
2022-10-06T11:33:59.099Z,1026.36
2022-10-06T11:34:59.121Z,1026.29
2022-10-06T11:35:59.792Z,1026.36
2022-10-06T11:36:59.093Z,1026.36
2022-10-06T11:37:59.013Z,1026.37
2022-10-06T11:38:59.049Z,1026.38
2022-10-06T11:39:59.317Z,1026.37
2022-10-06T11:40:59.076Z,1026.35
2022-10-06T11:41:59.911Z,1026.36
2022-10-06T11:42:59.011Z,1026.36
2022-10-06T11:43:59.155Z,1026.33
2022-10-06T11:44:59.258Z,1026.29
2022-10-06T11:45:59.038Z,1026.34
2022-10-06T11:46:58.966Z,1026.27
2022-10-06T11:47:58.957Z,1026.29
2022-10-06T11:48:58.931Z,1026.29
2022-10-06T11:49:58.876Z,1026.32
2022-10-06T11:50:59.015Z,1026.21
2022-10-06T11:52:00.330Z,1026.33
2022-10-06T11:52:58.953Z,1026.29
2022-10-06T11:53:59.768Z,1026.29
2022-10-06T11:54:59.182Z,1026.30
2022-10-06T11:55:58.832Z,1026.22
2022-10-06T11:56:58.787Z,1026.30
2022-10-06T11:57:58.777Z,1026.30
2022-10-06T11:58:58.764Z,1026.24
2022-10-06T11:59:58.777Z,1026.27
2022-10-06T12:00:58.747Z,1026.24
2022-10-06T12:01:58.945Z,1026.28
2022-10-06T12:02:58.838Z,1026.22
2022-10-06T12:03:58.718Z,1026.28
2022-10-06T12:04:59.016Z,1026.29
2022-10-06T12:06:00.172Z,1026.38